Time;durP1;ratioP1;P1;durP2;ratioP2;P2;SDS_P1;SDS_P2;PMS_P1;PMS_P2;Temp;Humidity;BMP_temperature;BMP_pressure;BME280_temperature;BME280_humidity;BME280_pressure;Samples;Min_cycle;Max_cycle;Signal;HPM_P1;HPM_P2
2022/04/19 00:08:44;;;;;;;;;4.50;4.50;;;;;;;;2;288084075;288084075;-81
2022/04/19 00:17:00;;;;;;;;;3.50;3.50;;;;;;;;2;261076736;261076736;-81
2022/04/19 00:26:27;;;;;;;;;8.50;3.50;;;;;;;;2;288085660;288085660;-82
2022/04/19 00:34:43;;;;;;;;;6.00;6.00;;;;;;;;2;261077510;261077510;-82
2022/04/19 00:44:11;;;;;;;;;4.00;4.00;;;;;;;;2;288084643;288084643;-82
2022/04/19 00:52:26;;;;;;;;;3.50;3.50;;;;;;;;2;261078102;261078102;-82
2022/04/19 01:01:54;;;;;;;;;1.50;1.50;;;;;;;;2;288084425;288084425;-83
2022/04/19 01:10:09;;;;;;;;;2.50;2.50;;;;;;;;2;261076399;261076399;-82
2022/04/19 01:19:40;;;;;;;;;4.00;4.00;;;;;;;;2;288083809;288083809;-83
2022/04/19 01:27:55;;;;;;;;;3.00;3.00;;;;;;;;2;261076273;261076273;-82
2022/04/19 01:37:23;;;;;;;;;1.50;1.50;;;;;;;;2;288082781;288082781;-82
2022/04/19 01:45:38;;;;;;;;;7.00;1.00;;;;;;;;2;261078705;261078705;-81
2022/04/19 01:55:07;;;;;;;;;4.00;4.00;;;;;;;;2;288082867;288082867;-82
2022/04/19 02:03:24;;;;;;;;;1.00;1.00;;;;;;;;2;261073169;261073169;-81
2022/04/19 02:12:52;;;;;;;;;4.00;4.00;;;;;;;;2;288079673;288079673;-81
2022/04/19 02:21:07;;;;;;;;;1.50;1.50;;;;;;;;2;261079264;261079264;-81
2022/04/19 02:30:35;;;;;;;;;1.00;1.00;;;;;;;;2;288084023;288084023;-81
2022/04/19 02:38:50;;;;;;;;;1.00;1.00;;;;;;;;2;261077261;261077261;-81
2022/04/19 02:48:18;;;;;;;;;1.50;1.50;;;;;;;;2;288086125;288086125;-81
2022/04/19 02:56:34;;;;;;;;;8.50;1.00;;;;;;;;2;261078519;261078519;-82
2022/04/19 03:06:02;;;;;;;;;1.00;1.00;;;;;;;;2;288086439;288086439;-82
2022/04/19 03:14:17;;;;;;;;;8.00;4.00;;;;;;;;2;261077844;261077844;-82
2022/04/19 03:32:19;;;;;;;;;3.00;3.00;;;;;;;;2;261075966;261075966;-82
2022/04/19 03:41:46;;;;;;;;;1.00;1.00;;;;;;;;2;288086174;288086174;-82
2022/04/19 03:50:03;;;;;;;;;1.00;1.00;;;;;;;;2;261077521;261077521;-82
2022/04/19 03:59:31;;;;;;;;;2.00;2.00;;;;;;;;2;288085759;288085759;-82
2022/04/19 04:07:46;;;;;;;;;7.00;7.00;;;;;;;;2;261078058;261078058;-81
2022/04/19 04:17:14;;;;;;;;;4.00;4.00;;;;;;;;2;288082755;288082755;-82
2022/04/19 04:25:30;;;;;;;;;1.00;1.00;;;;;;;;2;261078370;261078370;-82
2022/04/19 04:34:57;;;;;;;;;2.00;2.00;;;;;;;;2;288083356;288083356;-82
2022/04/19 04:43:13;;;;;;;;;4.00;4.00;;;;;;;;2;261078415;261078415;-82
2022/04/19 04:52:40;;;;;;;;;5.50;1.00;;;;;;;;2;288081799;288081799;-82
2022/04/19 05:00:56;;;;;;;;;5.50;2.50;;;;;;;;2;261073499;261073499;-82
2022/04/19 05:10:23;;;;;;;;;1.00;1.00;;;;;;;;2;288087288;288087288;-81
2022/04/19 05:18:39;;;;;;;;;5.50;1.00;;;;;;;;2;261075521;261075521;-81
2022/04/19 05:28:06;;;;;;;;;1.50;1.50;;;;;;;;2;288085456;288085456;-79
2022/04/19 05:36:23;;;;;;;;;5.50;1.50;;;;;;;;2;261078296;261078296;-79
2022/04/19 05:45:52;;;;;;;;;1.00;1.00;;;;;;;;2;288085189;288085189;-81
2022/04/19 05:54:08;;;;;;;;;1.00;1.00;;;;;;;;2;261080868;261080868;-80
2022/04/19 06:50:55;;;;;;;;;8.50;4.00;;;;;;;;2;261081202;261081202;-83
2022/04/19 07:00:43;;;;;;;;;1.00;1.00;;;;;;;;2;288085615;288085615;-83
2022/04/19 07:09:56;;;;;;;;;;;;;;;;;;;;;
2022/04/19 07:28:33;;;;;;;;;1.00;1.00;;;;;;;;2;261077207;261077207;-83
2022/04/19 07:38:04;;;;;;;;;1.00;1.00;;;;;;;;2;288087405;288087405;-85
2022/04/19 07:46:30;;;;;;;;;6.00;6.00;;;;;;;;2;261078094;261078094;-86
2022/04/19 07:56:04;;;;;;;;;4.00;4.00;;;;;;;;2;288086276;288086276;-87
2022/04/19 08:04:20;;;;;;;;;1.00;1.00;;;;;;;;2;261083759;261083759;-83
2022/04/19 08:13:48;;;;;;;;;1.00;1.00;;;;;;;;2;288091206;288091206;-82
2022/04/19 08:22:03;;;;;;;;;3.50;3.50;;;;;;;;2;261082256;261082256;-80
2022/04/19 08:31:31;;;;;;;;;1.00;1.00;;;;;;;;2;288089213;288089213;-86
2022/04/19 08:39:46;;;;;;;;;1.50;1.50;;;;;;;;2;261075823;261075823;-84
2022/04/19 08:49:16;;;;;;;;;4.50;4.50;;;;;;;;2;288085710;288085710;-85
2022/04/19 08:57:31;;;;;;;;;0.00;0.00;;;;;;;;2;261076283;261076283;-83
2022/04/19 09:07:00;;;;;;;;;0.00;0.00;;;;;;;;2;288087169;288087169;-82
2022/04/19 09:15:15;;;;;;;;;0.00;0.00;;;;;;;;2;261077207;261077207;-82
2022/04/19 09:24:43;;;;;;;;;19.00;7.00;;;;;;;;2;288085551;288085551;-82
2022/04/19 09:33:03;;;;;;;;;4.50;2.00;;;;;;;;2;261075171;261075171;-82
2022/04/19 09:42:31;;;;;;;;;3.50;3.50;;;;;;;;2;288084860;288084860;-82
2022/04/19 09:50:50;;;;;;;;;5.50;5.50;;;;;;;;2;261080785;261080785;-82
2022/04/19 10:00:19;;;;;;;;;28.00;12.00;;;;;;;;2;288083822;288083822;-83
2022/04/19 10:08:37;;;;;;;;;16.00;7.50;;;;;;;;2;261077861;261077861;-82
2022/04/19 10:18:04;;;;;;;;;11.50;11.50;;;;;;;;2;288084599;288084599;-82
2022/04/19 10:26:24;;;;;;;;;5.50;5.50;;;;;;;;2;261076511;261076511;-82
2022/04/19 10:36:13;;;;;;;;;11.00;7.00;;;;;;;;2;288085080;288085080;-87
2022/04/19 10:44:30;;;;;;;;;9.00;9.00;;;;;;;;2;261074446;261074446;-83
2022/04/19 10:53:57;;;;;;;;;17.00;5.00;;;;;;;;2;288084482;288084482;-83
2022/04/19 11:02:49;;;;;;;;;10.00;10.00;;;;;;;;2;261077201;261077201;-82
2022/04/19 11:12:18;;;;;;;;;15.50;15.50;;;;;;;;2;288085579;288085579;-82
2022/04/19 11:20:45;;;;;;;;;11.50;11.50;;;;;;;;2;261076580;261076580;-85
2022/04/19 11:30:13;;;;;;;;;15.50;15.50;;;;;;;;2;288079327;288079327;-84
2022/04/19 11:38:32;;;;;;;;;11.50;11.50;;;;;;;;2;261076441;261076441;-82
2022/04/19 11:48:00;;;;;;;;;6.00;6.00;;;;;;;;2;288085534;288085534;-83
2022/04/19 11:56:16;;;;;;;;;18.00;18.00;;;;;;;;2;261075152;261075152;-85
2022/04/19 12:05:44;;;;;;;;;10.00;10.00;;;;;;;;2;288084431;288084431;-83
2022/04/19 12:13:59;;;;;;;;;15.00;15.00;;;;;;;;2;261076462;261076462;-84
2022/04/19 12:23:27;;;;;;;;;19.00;14.50;;;;;;;;2;288080488;288080488;-84
2022/04/19 12:31:46;;;;;;;;;16.00;16.00;;;;;;;;2;261074510;261074510;-84
2022/04/19 12:41:15;;;;;;;;;18.00;18.00;;;;;;;;2;288085751;288085751;-84
2022/04/19 12:49:31;;;;;;;;;16.00;16.00;;;;;;;;2;261076187;261076187;-84
2022/04/19 12:58:59;;;;;;;;;12.50;12.50;;;;;;;;2;288084898;288084898;-86
2022/04/19 13:17:02;;;;;;;;;12.00;12.00;;;;;;;;2;288083405;288083405;-84
2022/04/19 13:25:20;;;;;;;;;6.00;6.00;;;;;;;;2;261078978;261078978;-86
2022/04/19 13:34:48;;;;;;;;;9.50;9.50;;;;;;;;2;288083614;288083614;-83
2022/04/19 13:43:03;;;;;;;;;7.00;7.00;;;;;;;;2;261075371;261075371;-83
2022/04/19 13:52:34;;;;;;;;;4.50;4.50;;;;;;;;2;288081832;288081832;-87
2022/04/19 14:00:52;;;;;;;;;12.00;6.00;;;;;;;;2;261078259;261078259;-85
2022/04/19 14:10:20;;;;;;;;;11.50;11.50;;;;;;;;2;288083416;288083416;-80
2022/04/19 14:18:35;;;;;;;;;9.00;9.00;;;;;;;;2;261074334;261074334;-80
2022/04/19 14:28:03;;;;;;;;;10.50;10.50;;;;;;;;2;288083592;288083592;-83
2022/04/19 14:36:18;;;;;;;;;7.00;7.00;;;;;;;;2;261077361;261077361;-83
2022/04/19 14:45:46;;;;;;;;;8.00;8.00;;;;;;;;2;288084001;288084001;-83
2022/04/19 14:54:01;;;;;;;;;15.50;10.00;;;;;;;;2;261077004;261077004;-84
2022/04/19 15:03:29;;;;;;;;;5.50;5.50;;;;;;;;2;288085211;288085211;-83
2022/04/19 15:11:45;;;;;;;;;7.00;7.00;;;;;;;;2;261074565;261074565;-83
2022/04/19 15:21:12;;;;;;;;;10.50;10.50;;;;;;;;2;288084679;288084679;-83
2022/04/19 15:29:31;;;;;;;;;9.00;9.00;;;;;;;;2;261076166;261076166;-83
2022/04/19 15:38:59;;;;;;;;;6.50;6.50;;;;;;;;2;288085735;288085735;-83
2022/04/19 15:47:14;;;;;;;;;9.00;9.00;;;;;;;;2;261076695;261076695;-83
2022/04/19 15:56:42;;;;;;;;;7.50;7.50;;;;;;;;2;288082098;288082098;-84
2022/04/19 16:04:57;;;;;;;;;9.00;9.00;;;;;;;;2;261073752;261073752;-83
2022/04/19 16:14:25;;;;;;;;;7.00;7.00;;;;;;;;2;288085449;288085449;-83
2022/04/19 16:32:28;;;;;;;;;10.50;10.50;;;;;;;;2;288080299;288080299;-83
2022/04/19 16:40:44;;;;;;;;;11.50;11.50;;;;;;;;2;261073549;261073549;-83
2022/04/19 16:50:12;;;;;;;;;9.50;9.50;;;;;;;;2;288086025;288086025;-78
2022/04/19 16:58:28;;;;;;;;;11.00;6.50;;;;;;;;2;261075393;261075393;-84
2022/04/19 17:07:55;;;;;;;;;4.50;4.50;;;;;;;;2;288087233;288087233;-87
2022/04/19 17:16:14;;;;;;;;;9.00;9.00;;;;;;;;2;261078842;261078842;-83
2022/04/19 17:25:42;;;;;;;;;7.50;7.50;;;;;;;;2;288085327;288085327;-83
2022/04/19 17:34:00;;;;;;;;;6.00;6.00;;;;;;;;2;261074912;261074912;-84
2022/04/19 17:43:28;;;;;;;;;6.00;6.00;;;;;;;;2;288083520;288083520;-84
2022/04/19 18:01:30;;;;;;;;;8.00;8.00;;;;;;;;2;288083886;288083886;-82
2022/04/19 18:09:46;;;;;;;;;8.50;8.50;;;;;;;;2;261079319;261079319;-84
2022/04/19 18:19:15;;;;;;;;;19.00;8.00;;;;;;;;2;288082846;288082846;-86
2022/04/19 18:27:31;;;;;;;;;7.50;7.50;;;;;;;;2;261076620;261076620;-82
2022/04/19 18:36:59;;;;;;;;;4.50;4.50;;;;;;;;2;288086163;288086163;-82
2022/04/19 18:45:14;;;;;;;;;18.00;13.00;;;;;;;;2;261079314;261079314;-79
2022/04/19 18:54:42;;;;;;;;;8.00;8.00;;;;;;;;2;288085202;288085202;-82
2022/04/19 19:02:58;;;;;;;;;13.00;5.00;;;;;;;;2;261078010;261078010;-82
2022/04/19 19:12:25;;;;;;;;;6.00;6.00;;;;;;;;2;288085242;288085242;-83
2022/04/19 19:20:41;;;;;;;;;4.00;4.00;;;;;;;;2;261077901;261077901;-81
2022/04/19 19:30:09;;;;;;;;;4.50;4.50;;;;;;;;2;288085791;288085791;-81
2022/04/19 19:38:25;;;;;;;;;5.00;5.00;;;;;;;;2;261080086;261080086;-80
2022/04/19 19:47:52;;;;;;;;;1.00;1.00;;;;;;;;2;288087781;288087781;-79
2022/04/19 19:56:08;;;;;;;;;11.50;11.50;;;;;;;;2;261076912;261076912;-81
2022/04/19 20:05:38;;;;;;;;;3.50;3.50;;;;;;;;2;288084884;288084884;-83
2022/04/19 20:13:53;;;;;;;;;1.00;1.00;;;;;;;;2;261078466;261078466;-81
2022/04/19 20:23:30;;;;;;;;;2.00;2.00;;;;;;;;2;288088384;288088384;-81
2022/04/19 20:31:45;;;;;;;;;2.50;2.50;;;;;;;;2;261077748;261077748;-83
2022/04/19 20:41:13;;;;;;;;;2.50;2.50;;;;;;;;2;288087443;288087443;-81
2022/04/19 20:59:21;;;;;;;;;3.50;3.50;;;;;;;;2;288082056;288082056;-79
2022/04/19 21:07:38;;;;;;;;;7.00;7.00;;;;;;;;2;261077383;261077383;-80
2022/04/19 21:17:06;;;;;;;;;11.50;11.50;;;;;;;;2;288084774;288084774;-80
2022/04/19 21:25:22;;;;;;;;;4.50;4.50;;;;;;;;2;261076250;261076250;-79
2022/04/19 21:34:50;;;;;;;;;5.50;5.50;;;;;;;;2;288083130;288083130;-78
2022/04/19 21:43:06;;;;;;;;;8.50;8.50;;;;;;;;2;261075805;261075805;-80
2022/04/19 21:52:35;;;;;;;;;7.00;7.00;;;;;;;;2;288081174;288081174;-80
2022/04/19 22:00:54;;;;;;;;;12.00;7.00;;;;;;;;2;261076673;261076673;-83
2022/04/19 22:10:21;;;;;;;;;11.50;6.00;;;;;;;;2;288084040;288084040;-81
2022/04/19 22:19:14;;;;;;;;;8.00;8.00;;;;;;;;2;261077698;261077698;-83
2022/04/19 22:28:41;;;;;;;;;6.00;6.00;;;;;;;;2;288087877;288087877;-81
2022/04/19 22:36:57;;;;;;;;;6.00;6.00;;;;;;;;2;261072964;261072964;-83
2022/04/19 22:46:24;;;;;;;;;6.00;6.00;;;;;;;;2;288084948;288084948;-83
2022/04/19 22:54:40;;;;;;;;;17.00;17.00;;;;;;;;2;261078107;261078107;-82
2022/04/19 23:04:07;;;;;;;;;4.00;4.00;;;;;;;;2;288083320;288083320;-81
2022/04/19 23:12:23;;;;;;;;;19.00;14.50;;;;;;;;2;261077217;261077217;-81
2022/04/19 23:21:50;;;;;;;;;22.00;9.00;;;;;;;;2;288084525;288084525;-82
2022/04/19 23:30:06;;;;;;;;;10.00;10.00;;;;;;;;2;261075643;261075643;-82
2022/04/19 23:39:34;;;;;;;;;15.00;13.50;;;;;;;;2;288082442;288082442;-82
2022/04/19 23:47:49;;;;;;;;;22.00;14.50;;;;;;;;2;261077106;261077106;-82
2022/04/19 23:57:17;;;;;;;;;22.50;14.50;;;;;;;;2;288082515;288082515;-82
